Terminal Aerodrome Forecast
Issued by NWS Memphis, TN

Home | Current Version | Previous Version | Text Only | Print | Product List | Glossary On
Versions: 1 2 3 4 5 6 7 8 9 10 11 12 13 14
000
FTUS44 KMEG 170500
TAFMKL
TAF
KMKL 170530Z 1706/1806 00000KT P6SM BKN045
      TEMPO 1708/1712 2SM BR
     FM171400 03004KT P6SM SCT035 BKN150
     FM171700 32006KT P6SM BKN035
     FM180000 00000KT P6SM BKN035 BKN090=

USA.gov is the U.S. government's official web portal to all federal, state and local government web resources and services.